Time;durP1;ratioP1;P1;durP2;ratioP2;P2;SDS_P1;SDS_P2;PMS_P1;PMS_P2;Temp;Humidity;BMP_temperature;BMP_pressure;BME280_temperature;BME280_humidity;BME280_pressure;Samples;Min_cycle;Max_cycle;Signal;HPM_P1;HPM_P2
2023/08/18 00:00:00;;;;;;;;;;;20.00;99.90;;;;;;5174888;28;20687;-67
2023/08/18 00:02:37;;;;;;;7.43;5.80;;;19.90;99.90;;;;;;5175751;28;19959;-66
2023/08/18 00:05:09;;;;;;;6.72;5.68;;;19.90;99.90;;;;;;5178303;28;20060;-66
2023/08/18 00:07:43;;;;;;;7.68;6.60;;;19.90;99.90;;;;;;5175583;28;20038;-66
2023/08/18 00:10:16;;;;;;;9.70;6.38;;;19.90;99.90;;;;;;5156099;28;20059;-67
2023/08/18 00:12:50;;;;;;;7.18;5.82;;;19.90;99.90;;;;;;5180393;28;20045;-65
2023/08/18 00:15:24;;;;;;;9.13;6.25;;;19.90;99.90;;;;;;5148019;28;20228;-66
2023/08/18 00:17:58;;;;;;;8.82;7.40;;;19.90;99.90;;;;;;5178335;28;20048;-67
2023/08/18 00:20:32;;;;;;;8.40;6.88;;;19.80;99.90;;;;;;5175798;28;20059;-64
2023/08/18 00:23:07;;;;;;;8.90;6.82;;;19.80;99.90;;;;;;5160995;28;20051;-65
2023/08/18 00:25:41;;;;;;;7.88;6.20;;;19.80;99.90;;;;;;5162718;28;20349;-65
2023/08/18 00:28:16;;;;;;;9.05;6.53;;;19.70;99.90;;;;;;5140862;28;20045;-64
2023/08/18 00:30:50;;;;;;;;;;;19.70;99.90;;;;;;5171169;28;20045;-62
2023/08/18 00:33:26;;;;;;;9.63;7.63;;;19.60;99.90;;;;;;5160910;28;19927;-67
2023/08/18 00:36:01;;;;;;;12.43;8.15;;;19.60;99.90;;;;;;5177988;28;20392;-66
2023/08/18 00:38:33;;;;;;;9.00;7.00;;;19.50;99.90;;;;;;5177905;28;20033;-63
2023/08/18 00:41:04;;;;;;;9.50;8.07;;;19.50;99.90;;;;;;5162323;28;20056;-62
2023/08/18 00:43:44;;;;;;;8.13;6.80;;;19.50;99.90;;;;;;5144329;28;20159;-65
2023/08/18 00:46:21;;;;;;;7.72;6.75;;;19.40;99.90;;;;;;5151819;28;20034;-65
2023/08/18 00:48:55;;;;;;;10.73;7.97;;;19.30;99.90;;;;;;5189135;28;20045;-66
2023/08/18 00:51:32;;;;;;;8.05;6.85;;;19.30;99.90;;;;;;5170030;28;20046;-63
2023/08/18 00:54:04;;;;;;;9.80;6.90;;;19.30;99.90;;;;;;5157897;28;20053;-65
2023/08/18 00:56:42;;;;;;;11.18;7.78;;;19.30;99.90;;;;;;5188028;28;20050;-64
2023/08/18 00:59:14;;;;;;;9.20;6.95;;;19.30;99.90;;;;;;5140078;28;20050;-64
2023/08/18 01:01:49;;;;;;;7.60;6.32;;;19.30;99.90;;;;;;5230335;22;20046;-71
2023/08/18 01:04:23;;;;;;;9.10;7.35;;;19.20;99.90;;;;;;5098384;28;21613;-70
2023/08/18 01:07:02;;;;;;;8.90;7.93;;;19.20;99.90;;;;;;5115895;28;20035;-70
2023/08/18 01:09:34;;;;;;;10.68;7.28;;;19.20;99.90;;;;;;5101553;28;20039;-71
2023/08/18 01:12:45;;;;;;;9.18;7.57;;;19.20;99.90;;;;;;5103855;28;20051;-71
2023/08/18 01:15:29;;;;;;;7.78;6.72;;;19.20;99.90;;;;;;5103320;28;20058;-71
2023/08/18 01:18:04;;;;;;;10.45;7.20;;;19.20;99.90;;;;;;5115061;28;20339;-69
2023/08/18 01:20:39;;;;;;;8.70;6.88;;;19.30;99.90;;;;;;5102811;28;20366;-71
2023/08/18 01:23:11;;;;;;;7.97;7.18;;;19.20;99.90;;;;;;5116125;28;20253;-71
2023/08/18 01:25:46;;;;;;;8.13;7.03;;;19.10;99.90;;;;;;5109013;28;20050;-70
2023/08/18 01:28:20;;;;;;;8.75;7.32;;;19.00;99.90;;;;;;5101016;28;20039;-73
2023/08/18 01:30:53;;;;;;;8.48;6.35;;;18.90;99.90;;;;;;5100135;28;20047;-70
2023/08/18 01:33:48;;;;;;;8.25;6.82;;;18.80;99.90;;;;;;5086751;28;20271;-72
2023/08/18 01:36:38;;;;;;;8.25;6.63;;;18.80;99.90;;;;;;5089384;28;20043;-71
2023/08/18 01:39:15;;;;;;;9.27;7.13;;;18.70;99.90;;;;;;5118789;28;20035;-71
2023/08/18 01:41:49;;;;;;;9.52;6.05;;;18.70;99.90;;;;;;5091225;28;20035;-71
2023/08/18 01:44:23;;;;;;;8.57;6.97;;;18.70;99.90;;;;;;5073940;28;20050;-71
2023/08/18 01:46:57;;;;;;;8.85;7.75;;;18.70;99.90;;;;;;5097903;28;20041;-70
2023/08/18 01:49:29;;;;;;;12.57;7.35;;;18.70;99.90;;;;;;5103115;28;20039;-71
2023/08/18 01:52:01;;;;;;;8.85;7.13;;;18.60;99.90;;;;;;5099781;28;20047;-71
2023/08/18 01:54:33;;;;;;;8.18;6.85;;;18.60;99.90;;;;;;5099092;28;20049;-71
2023/08/18 01:57:10;;;;;;;7.93;6.80;;;18.50;99.90;;;;;;5105543;28;20039;-71
2023/08/18 01:59:45;;;;;;;9.07;6.95;;;18.50;99.90;;;;;;5071069;28;20364;-71
2023/08/18 02:02:21;;;;;;;9.23;7.03;;;18.50;99.90;;;;;;5151917;28;20051;-70
2023/08/18 02:04:58;;;;;;;9.02;7.03;;;18.40;99.90;;;;;;5108612;29;20035;-71
2023/08/18 02:07:30;;;;;;;8.88;7.07;;;18.40;99.90;;;;;;5101882;28;20047;-71
2023/08/18 02:10:04;;;;;;;8.20;6.82;;;18.40;99.90;;;;;;5084163;28;20051;-70
2023/08/18 02:12:39;;;;;;;10.55;7.93;;;18.40;99.90;;;;;;5087403;28;20047;-70
2023/08/18 02:15:13;;;;;;;8.68;7.35;;;18.40;99.90;;;;;;5097033;29;20047;-70
2023/08/18 02:17:47;;;;;;;8.98;7.28;;;18.30;99.90;;;;;;5104352;29;20061;-72
2023/08/18 02:20:21;;;;;;;11.00;8.32;;;18.30;99.90;;;;;;5088221;29;20050;-71
2023/08/18 02:22:59;;;;;;;11.35;8.88;;;18.40;99.90;;;;;;5124069;29;20057;-71
2023/08/18 02:25:31;;;;;;;11.88;9.13;;;18.50;99.90;;;;;;5105072;29;20340;-70
2023/08/18 02:28:03;;;;;;;11.65;8.63;;;18.50;99.90;;;;;;5119140;28;20372;-71
2023/08/18 02:30:35;;;;;;;11.27;8.10;;;18.50;99.90;;;;;;5175841;28;20035;-70
2023/08/18 02:33:06;;;;;;;11.93;8.68;;;18.50;99.90;;;;;;5101084;28;20277;-70
2023/08/18 02:35:42;;;;;;;13.75;9.18;;;18.40;99.90;;;;;;5107908;29;20054;-71
2023/08/18 02:38:18;;;;;;;9.00;7.88;;;18.40;99.90;;;;;;5105138;28;20377;-70
2023/08/18 02:40:52;;;;;;;13.73;8.45;;;18.40;99.90;;;;;;5097399;29;20053;-71
2023/08/18 02:43:28;;;;;;;10.63;8.73;;;18.40;99.90;;;;;;5083528;28;20436;-71
2023/08/18 02:46:02;;;;;;;11.63;8.00;;;18.40;99.90;;;;;;5126004;28;20047;-71
2023/08/18 02:48:37;;;;;;;12.60;8.68;;;18.40;99.90;;;;;;5113932;29;20065;-70
2023/08/18 02:51:10;;;;;;;9.80;7.82;;;18.30;99.90;;;;;;5106297;28;20264;-70
2023/08/18 02:53:42;;;;;;;10.05;8.20;;;18.30;99.90;;;;;;5097396;28;20043;-71
2023/08/18 02:56:17;;;;;;;9.52;7.32;;;18.20;99.90;;;;;;5096228;29;20137;-71
2023/08/18 02:58:51;;;;;;;14.18;8.60;;;18.20;99.90;;;;;;5104492;28;20051;-71
2023/08/18 03:01:23;;;;;;;10.30;7.10;;;18.10;99.90;;;;;;5095332;28;20039;-71
2023/08/18 03:03:57;;;;;;;10.35;8.00;;;18.00;99.90;;;;;;5086871;28;20051;-71
2023/08/18 03:06:31;;;;;;;11.15;8.52;;;18.10;99.90;;;;;;5101380;29;20051;-71
2023/08/18 03:09:03;;;;;;;8.68;7.57;;;18.10;99.90;;;;;;5082134;28;20450;-70
2023/08/18 03:11:37;;;;;;;11.05;8.30;;;18.10;99.90;;;;;;5081922;29;20047;-71
2023/08/18 03:14:09;;;;;;;9.57;8.20;;;18.10;99.90;;;;;;5098980;28;20491;-71
2023/08/18 03:16:42;;;;;;;11.98;8.27;;;18.10;99.90;;;;;;5096752;28;20035;-69
2023/08/18 03:19:14;;;;;;;12.30;8.40;;;18.10;99.90;;;;;;5100536;28;20050;-71
2023/08/18 03:21:50;;;;;;;10.85;8.15;;;18.10;99.90;;;;;;5101405;28;20066;-70
2023/08/18 03:24:24;;;;;;;9.57;8.00;;;18.00;99.90;;;;;;5086459;28;20069;-70
2023/08/18 03:26:56;;;;;;;11.98;7.70;;;18.00;99.90;;;;;;5065419;28;20051;-71
2023/08/18 03:29:27;;;;;;;10.32;8.00;;;18.00;99.90;;;;;;5096000;28;20032;-69
2023/08/18 03:32:06;;;;;;;9.85;8.48;;;18.00;99.90;;;;;;5113498;28;20094;-70
2023/08/18 03:34:39;;;;;;;11.63;8.90;;;18.00;99.90;;;;;;5088727;28;20040;-70
2023/08/18 03:37:18;;;;;;;11.70;9.15;;;18.10;99.90;;;;;;5087434;29;20043;-69
2023/08/18 03:39:54;;;;;;;11.25;8.63;;;18.10;99.90;;;;;;5081381;28;20051;-69
2023/08/18 03:42:26;;;;;;;12.52;8.20;;;18.20;99.90;;;;;;5088131;28;20035;-69
2023/08/18 03:44:58;;;;;;;10.88;8.00;;;18.20;99.90;;;;;;5106256;28;20243;-70
2023/08/18 03:47:39;;;;;;;10.57;8.15;;;18.10;99.90;;;;;;5081437;28;20039;-71
2023/08/18 03:50:13;;;;;;;10.07;7.85;;;18.10;99.90;;;;;;5082388;28;20051;-69
2023/08/18 03:52:44;;;;;;;12.23;8.43;;;18.10;99.90;;;;;;5083838;28;20050;-69
2023/08/18 03:55:22;;;;;;;12.38;8.32;;;18.20;99.90;;;;;;5102758;28;20046;-69
2023/08/18 03:57:56;;;;;;;11.93;9.30;;;18.20;99.90;;;;;;5106860;28;20027;-70
2023/08/18 04:00:29;;;;;;;11.27;8.05;;;18.20;99.90;;;;;;5092597;28;20047;-70
2023/08/18 04:03:03;;;;;;;11.45;8.38;;;18.10;99.90;;;;;;5080273;29;20047;-70
2023/08/18 04:05:48;;;;;;;10.43;8.45;;;18.10;99.90;;;;;;5090380;29;20054;-69
2023/08/18 04:08:19;;;;;;;10.82;7.78;;;18.20;99.90;;;;;;5119056;28;20343;-69
2023/08/18 04:10:51;;;;;;;10.88;8.48;;;18.20;99.90;;;;;;5079403;29;20052;-70
2023/08/18 04:13:31;;;;;;;11.57;8.70;;;18.20;99.90;;;;;;5083788;29;20059;-70
2023/08/18 04:16:10;;;;;;;10.13;7.63;;;18.30;99.90;;;;;;5105013;28;20042;-71
2023/08/18 04:18:42;;;;;;;11.00;7.75;;;18.30;99.90;;;;;;5094316;28;20408;-71
2023/08/18 04:21:16;;;;;;;12.45;8.20;;;18.50;99.90;;;;;;5095280;29;20392;-70
2023/08/18 04:23:48;;;;;;;10.15;7.57;;;18.60;99.90;;;;;;5127833;28;20047;-71
2023/08/18 04:26:27;;;;;;;11.88;8.20;;;18.70;99.90;;;;;;5071816;28;20047;-71
2023/08/18 04:29:04;;;;;;;10.30;7.78;;;18.70;99.90;;;;;;5096430;28;20023;-70
2023/08/18 04:31:37;;;;;;;8.98;6.72;;;18.80;99.90;;;;;;5100835;28;20046;-72
2023/08/18 04:34:08;;;;;;;12.55;7.47;;;18.90;99.90;;;;;;5079833;28;20055;-72
2023/08/18 04:36:41;;;;;;;9.70;7.95;;;19.10;99.90;;;;;;5082469;28;20051;-71
2023/08/18 04:39:15;;;;;;;10.35;7.70;;;19.20;99.90;;;;;;5139651;28;20041;-71
2023/08/18 04:41:49;;;;;;;10.55;7.88;;;19.30;99.90;;;;;;5083435;29;20043;-70
2023/08/18 04:44:22;;;;;;;11.90;7.82;;;19.40;99.90;;;;;;5100116;28;20043;-70
2023/08/18 04:46:55;;;;;;;11.32;7.65;;;19.60;99.90;;;;;;5069081;28;20053;-72
2023/08/18 04:49:26;;;;;;;8.48;6.78;;;19.80;99.90;;;;;;5158027;28;20548;-73
2023/08/18 04:52:00;;;;;;;8.55;5.82;;;20.00;99.90;;;;;;5081870;28;20043;-71
2023/08/18 04:54:32;;;;;;;9.20;6.70;;;20.20;99.90;;;;;;5097951;29;20331;-70
2023/08/18 04:57:07;;;;;;;9.18;7.20;;;20.30;99.90;;;;;;5095931;28;20054;-70
2023/08/18 04:59:42;;;;;;;9.13;6.28;;;20.40;99.90;;;;;;5080282;28;20581;-72
2023/08/18 05:02:18;;;;;;;8.85;6.13;;;20.50;99.90;;;;;;5133239;28;20063;-73
2023/08/18 05:04:57;;;;;;;10.38;6.82;;;20.60;99.90;;;;;;5137939;28;20040;-73
2023/08/18 05:07:29;;;;;;;7.43;5.97;;;20.80;99.90;;;;;;5132159;28;20047;-71
2023/08/18 05:10:01;;;;;;;9.10;6.57;;;20.80;99.90;;;;;;5088243;29;20050;-71
2023/08/18 05:12:32;;;;;;;7.10;5.88;;;20.80;99.90;;;;;;5115389;28;20039;-74
2023/08/18 05:15:05;;;;;;;8.48;6.30;;;20.70;99.90;;;;;;5090102;29;20047;-71
2023/08/18 05:17:37;;;;;;;8.50;6.38;;;20.70;99.90;;;;;;5118025;28;20047;-72
2023/08/18 05:20:11;;;;;;;7.28;6.10;;;20.60;99.90;;;;;;5119047;28;20039;-73
2023/08/18 05:22:42;;;;;;;;;;;20.60;99.90;;;;;;5079149;28;20051;-72
2023/08/18 05:25:16;;;;;;;6.97;5.90;;;20.70;99.90;;;;;;5107830;28;19915;-73
2023/08/18 05:27:55;;;;;;;8.98;6.32;;;20.70;99.90;;;;;;5062891;29;20044;-74
2023/08/18 05:30:28;;;;;;;8.77;6.90;;;20.70;99.90;;;;;;5076239;28;20538;-72
2023/08/18 05:33:00;;;;;;;8.80;6.03;;;20.80;99.90;;;;;;5141296;28;21145;-70
2023/08/18 05:35:35;;;;;;;7.50;6.25;;;21.10;99.90;;;;;;5083228;29;20389;-70
2023/08/18 05:38:12;;;;;;;7.85;5.88;;;21.50;71.50;;;;;;5100042;28;20045;-72
2023/08/18 05:40:49;;;;;;;7.93;6.20;;;21.80;1.00;;;;;;5076007;29;20035;-73
2023/08/18 05:43:25;;;;;;;9.35;6.28;;;22.00;1.00;;;;;;5088895;28;20047;-72
2023/08/18 05:45:56;;;;;;;9.05;6.55;;;22.40;1.00;;;;;;5092777;28;20047;-72
2023/08/18 05:48:30;;;;;;;7.63;6.43;;;22.60;1.00;;;;;;5101764;29;20043;-73
2023/08/18 05:51:08;;;;;;;7.20;5.72;;;22.80;1.00;;;;;;5097867;28;20052;-71
2023/08/18 05:53:39;;;;;;;10.02;6.22;;;23.10;1.00;;;;;;5067659;28;20483;-70
2023/08/18 05:56:17;;;;;;;7.75;6.25;;;23.20;1.00;;;;;;5095485;28;20377;-70
2023/08/18 05:58:50;;;;;;;7.70;6.40;;;23.30;1.00;;;;;;5118067;28;20492;-70
2023/08/18 06:01:25;;;;;;;8.25;6.70;;;23.40;1.00;;;;;;5093673;28;20035;-70
2023/08/18 06:03:58;;;;;;;8.07;6.72;;;23.60;1.00;;;;;;5154308;28;20049;-72
2023/08/18 06:06:30;;;;;;;7.95;6.00;;;23.80;99.90;;;;;;5094685;28;20047;-73
2023/08/18 06:09:07;;;;;;;9.95;6.85;;;24.00;99.90;;;;;;5090189;28;20039;-71
2023/08/18 06:11:38;;;;;;;9.82;6.00;;;24.20;99.90;;;;;;5085076;28;20419;-74
2023/08/18 06:14:13;;;;;;;7.10;6.15;;;24.40;66.50;;;;;;5084467;29;20494;-71
2023/08/18 06:16:44;;;;;;;10.82;5.75;;;24.60;1.00;;;;;;5096965;29;20061;-71
2023/08/18 06:19:21;;;;;;;7.68;5.70;;;24.80;1.00;;;;;;5098207;29;20041;-70
2023/08/18 06:21:53;;;;;;;8.15;6.35;;;24.90;1.00;;;;;;5116372;28;20046;-71
2023/08/18 06:24:24;;;;;;;5.30;4.75;;;24.90;1.00;;;;;;5164515;28;20052;-70
2023/08/18 06:26:57;;;;;;;7.60;5.18;;;24.70;1.00;;;;;;5081526;28;20047;-72
2023/08/18 06:29:31;;;;;;;12.88;5.70;;;24.50;1.00;;;;;;5128433;28;20031;-72
2023/08/18 06:32:13;;;;;;;9.23;6.00;;;24.50;1.00;;;;;;5095339;28;20605;-70
2023/08/18 06:34:45;;;;;;;7.30;5.45;;;24.20;1.00;;;;;;5099061;28;20050;-70
2023/08/18 06:37:19;;;;;;;8.77;5.85;;;24.30;1.00;;;;;;5116160;28;20051;-71
2023/08/18 06:39:51;;;;;;;8.73;5.70;;;24.50;1.00;;;;;;5097956;29;20043;-71
2023/08/18 06:42:23;;;;;;;6.47;5.40;;;24.30;1.00;;;;;;5093186;28;20039;-69
2023/08/18 06:44:57;;;;;;;10.35;5.85;;;23.60;1.00;;;;;;5099795;28;20047;-71
2023/08/18 06:47:29;;;;;;;9.80;5.85;;;23.70;1.00;;;;;;5102832;29;20036;-70
2023/08/18 06:50:01;;;;;;;5.88;5.13;;;23.80;50.00;;;;;;5103333;28;20027;-71
2023/08/18 06:52:39;;;;;;;8.25;5.50;;;24.20;1.00;;;;;;5097015;28;20448;-72
2023/08/18 06:55:14;;;;;;;7.75;5.85;;;24.50;1.00;;;;;;5073989;28;20051;-70
2023/08/18 06:57:48;;;;;;;7.38;6.20;;;24.00;1.00;;;;;;5091759;29;20028;-70
2023/08/18 07:00:22;;;;;;;7.38;5.68;;;23.70;1.00;;;;;;5143852;28;20523;-72
2023/08/18 07:02:54;;;;;;;7.20;6.38;;;23.80;99.90;;;;;;5122293;28;20059;-71
2023/08/18 07:05:26;;;;;;;8.43;5.97;;;24.00;99.90;;;;;;5097153;29;20050;-72
2023/08/18 07:08:03;;;;;;;5.78;4.97;;;24.50;1.00;;;;;;5065645;28;20035;-69
2023/08/18 07:10:34;;;;;;;7.43;5.53;;;24.60;1.00;;;;;;5086788;29;20031;-73
2023/08/18 07:13:06;;;;;;;7.18;5.53;;;25.10;99.90;;;;;;5081049;28;20047;-72
2023/08/18 07:15:40;;;;;;;8.52;5.15;;;25.40;99.90;;;;;;5092352;29;20039;-72
2023/08/18 07:18:11;;;;;;;6.88;5.63;;;25.70;1.00;;;;;;5101486;28;20077;-73
2023/08/18 07:20:46;;;;;;;6.93;5.40;;;25.70;1.00;;;;;;5101987;29;20039;-70
2023/08/18 07:23:22;;;;;;;8.55;5.18;;;26.10;1.00;;;;;;5092375;28;20041;-70
2023/08/18 07:25:59;;;;;;;6.22;5.00;;;26.60;1.00;;;;;;5111800;28;20035;-71
2023/08/18 07:28:31;;;;;;;5.28;4.78;;;27.00;99.90;;;;;;5105895;29;20023;-71
2023/08/18 07:31:04;;;;;;;5.50;4.65;;;27.40;99.90;;;;;;5095893;29;20208;-71
2023/08/18 07:33:36;;;;;;;5.38;4.88;;;27.70;1.00;;;;;;5087218;29;20036;-73
2023/08/18 07:36:07;;;;;;;5.53;4.72;;;28.00;1.00;;;;;;5164302;28;20055;-71
2023/08/18 07:38:39;;;;;;;9.07;4.97;;;28.10;1.00;;;;;;5100036;29;20300;-72
2023/08/18 07:41:13;;;;;;;6.13;4.85;;;28.10;1.00;;;;;;5098644;29;20042;-74
2023/08/18 07:43:45;;;;;;;7.70;5.30;;;28.10;99.90;;;;;;5173243;28;20051;-73
2023/08/18 07:46:16;;;;;;;5.00;4.50;;;28.10;99.90;;;;;;5098035;29;20304;-72
2023/08/18 07:48:53;;;;;;;7.82;5.18;;;28.20;99.90;;;;;;5167022;28;20242;-73
2023/08/18 07:51:28;;;;;;;6.10;5.22;;;28.40;99.90;;;;;;5094204;28;20228;-72
2023/08/18 07:53:59;;;;;;;5.72;5.10;;;28.70;99.90;;;;;;5103995;28;20042;-72
2023/08/18 07:56:31;;;;;;;4.95;4.35;;;29.00;99.90;;;;;;5175341;28;20449;-72
2023/08/18 07:59:05;;;;;;;6.18;5.40;;;29.30;99.90;;;;;;5163984;28;20042;-73
2023/08/18 08:01:43;;;;;;;6.97;4.97;;;29.50;1.00;;;;;;5085069;28;20043;-71
2023/08/18 08:04:15;;;;;;;6.47;5.10;;;29.50;1.00;;;;;;5151803;28;20053;-74
2023/08/18 08:06:53;;;;;;;6.78;5.22;;;29.40;1.00;;;;;;5070899;28;20469;-73
2023/08/18 08:09:25;;;;;;;6.07;4.63;;;29.50;1.00;;;;;;5085482;28;20323;-73
2023/08/18 08:12:02;;;;;;;6.78;5.75;;;29.20;1.00;;;;;;5082092;28;20240;-72
2023/08/18 08:14:33;;;;;;;7.22;5.30;;;29.30;1.00;;;;;;5082972;28;20066;-72
2023/08/18 08:17:09;;;;;;;6.28;4.93;;;29.40;1.00;;;;;;5104277;29;20039;-74
2023/08/18 08:19:44;;;;;;;5.20;4.70;;;29.80;1.00;;;;;;5100883;29;20053;-73
2023/08/18 08:22:16;;;;;;;7.05;4.82;;;30.10;1.00;;;;;;5096851;28;20031;-72
2023/08/18 08:24:57;;;;;;;6.55;5.07;;;30.70;99.90;;;;;;5096592;28;20051;-71
2023/08/18 08:27:28;;;;;;;4.97;4.47;;;30.20;1.00;;;;;;5090396;28;20041;-72
2023/08/18 08:30:04;;;;;;;6.07;4.85;;;30.10;1.00;;;;;;5098510;29;20043;-74
2023/08/18 08:32:36;;;;;;;6.68;4.90;;;30.00;1.00;;;;;;5098175;29;20251;-74
2023/08/18 08:35:16;;;;;;;5.65;4.57;;;30.30;99.90;;;;;;5104200;28;20051;-74
2023/08/18 08:37:51;;;;;;;5.80;5.03;;;30.40;99.90;;;;;;5103897;28;20149;-73
2023/08/18 08:40:23;;;;;;;7.38;5.40;;;30.60;1.00;;;;;;5108823;28;20045;-72
2023/08/18 08:42:56;;;;;;;8.07;5.28;;;30.80;1.00;;;;;;5165252;28;20425;-72
2023/08/18 08:45:30;;;;;;;5.78;5.03;;;30.70;99.90;;;;;;5081344;29;20031;-74
2023/08/18 08:48:07;;;;;;;5.70;4.53;;;31.30;1.00;;;;;;5095699;28;20078;-72
2023/08/18 08:50:51;;;;;;;6.20;5.28;;;31.80;99.90;;;;;;5080301;29;20044;-72
2023/08/18 08:53:39;;;;;;;6.15;5.25;;;32.30;98.90;;;;;;5085176;28;20339;-72
2023/08/18 08:56:11;;;;;;;10.80;4.57;;;32.40;99.90;;;;;;5096397;29;20050;-70
2023/08/18 08:58:43;;;;;;;7.65;5.45;;;32.20;1.00;;;;;;5100087;29;20049;-74
2023/08/18 09:01:20;;;;;;;6.95;5.43;;;32.30;1.00;;;;;;5112652;29;20031;-72
2023/08/18 09:03:53;;;;;;;7.28;5.50;;;31.90;99.90;;;;;;5101461;29;20161;-75
2023/08/18 09:06:25;;;;;;;8.77;6.53;;;32.10;99.90;;;;;;5099538;29;20232;-73
2023/08/18 09:09:01;;;;;;;9.20;5.57;;;32.20;97.80;;;;;;5117334;29;20061;-72
2023/08/18 09:11:46;;;;;;;7.65;6.43;;;32.70;1.00;;;;;;5117060;28;20047;-71
2023/08/18 09:14:20;;;;;;;6.35;5.45;;;32.50;1.00;;;;;;5142774;28;20326;-72
2023/08/18 09:16:52;;;;;;;6.10;5.50;;;32.30;99.90;;;;;;5152440;28;20031;-73
2023/08/18 09:19:27;;;;;;;7.40;6.60;;;32.80;99.90;;;;;;5186774;28;20361;-72
2023/08/18 09:22:04;;;;;;;7.03;5.07;;;32.90;99.90;;;;;;5120363;28;20077;-73
2023/08/18 09:24:38;;;;;;;5.50;4.85;;;33.30;99.90;;;;;;5103884;28;20371;-74
2023/08/18 09:27:14;;;;;;;;;;;33.50;99.90;;;;;;5101597;28;20283;-71
2023/08/18 09:29:48;;;;;;;7.50;5.30;;;33.80;1.00;;;;;;5114666;28;19925;-75
2023/08/18 09:32:24;;;;;;;8.65;6.03;;;34.20;99.90;;;;;;5195666;28;20220;-73
2023/08/18 09:34:56;;;;;;;7.32;5.43;;;34.30;1.00;;;;;;5139369;28;20374;-72
2023/08/18 09:37:35;;;;;;;6.28;5.50;;;33.60;1.00;;;;;;5087707;28;20296;-76
2023/08/18 09:40:12;;;;;;;7.28;5.07;;;34.00;1.00;;;;;;5083357;28;20027;-73
2023/08/18 09:42:44;;;;;;;5.18;4.68;;;34.30;99.90;;;;;;5052596;29;20051;-71
2023/08/18 09:45:15;;;;;;;5.65;4.88;;;34.30;99.90;;;;;;5097429;29;20360;-72
2023/08/18 09:47:55;;;;;;;7.03;5.13;;;33.60;99.90;;;;;;5111186;28;20049;-73
2023/08/18 09:50:33;;;;;;;6.40;5.60;;;34.80;1.00;;;;;;5181586;28;20244;-72
2023/08/18 09:53:09;;;;;;;5.72;4.93;;;34.80;1.00;;;;;;5133883;28;20053;-74
2023/08/18 09:55:46;;;;;;;6.38;4.40;;;34.80;1.00;;;;;;5111531;28;20035;-72
2023/08/18 09:58:40;;;;;;;4.43;3.88;;;35.10;1.00;;;;;;5132085;28;20395;-73
2023/08/18 10:01:12;;;;;;;;;;;35.70;1.00;;;;;;5096709;29;20498;-72
2023/08/18 10:03:50;;;;;;;5.70;4.40;;;36.00;61.90;;;;;;5121315;28;19920;-72
2023/08/18 10:06:25;;;;;;;4.45;4.05;;;35.30;99.90;;;;;;5189943;28;20042;-73
2023/08/18 10:09:03;;;;;;;7.30;5.03;;;35.30;5.70;;;;;;5148815;28;20059;-73
2023/08/18 10:11:41;;;;;;;5.10;4.60;;;35.30;1.00;;;;;;5102196;28;20050;-72
2023/08/18 10:14:13;;;;;;;4.43;4.00;;;35.60;22.00;;;;;;5113222;28;20067;-74
2023/08/18 10:16:46;;;;;;;4.50;4.10;;;35.30;1.00;;;;;;5086649;28;20051;-75
2023/08/18 10:19:56;;;;;;;4.37;3.97;;;35.80;32.80;;;;;;5108651;28;20494;-74
2023/08/18 10:22:35;;;;;;;4.35;3.95;;;37.00;99.90;;;;;;5107328;28;20195;-72
2023/08/18 10:25:07;;;;;;;5.78;4.47;;;38.10;85.00;;;;;;5105414;28;20048;-71
2023/08/18 10:27:41;;;;;;;4.88;4.38;;;39.00;99.90;;;;;;5100783;28;20036;-72
2023/08/18 10:30:14;;;;;;;5.07;4.50;;;39.20;99.90;;;;;;5097701;29;20053;-73
2023/08/18 10:32:50;;;;;;;5.95;4.38;;;38.50;1.00;;;;;;5077709;28;20039;-72
2023/08/18 10:35:31;;;;;;;6.95;4.72;;;37.50;99.90;;;;;;5165871;28;20264;-70
2023/08/18 10:38:05;;;;;;;5.20;4.70;;;36.40;99.90;;;;;;5169814;28;20045;-73
2023/08/18 10:40:39;;;;;;;5.95;4.93;;;35.80;99.90;;;;;;5187087;28;20049;-73
2023/08/18 10:43:23;;;;;;;5.20;4.25;;;35.30;99.90;;;;;;5176038;28;20033;-73
2023/08/18 10:46:02;;;;;;;4.55;4.13;;;35.20;99.90;;;;;;5089588;28;20031;-75
2023/08/18 10:48:34;;;;;;;4.93;4.53;;;35.50;99.90;;;;;;5119357;28;20344;-71
2023/08/18 10:51:13;;;;;;;5.82;4.95;;;34.70;99.90;;;;;;5102226;29;20049;-74
2023/08/18 10:53:45;;;;;;;4.72;3.88;;;34.40;99.90;;;;;;5099764;28;20046;-71
2023/08/18 10:56:19;;;;;;;6.03;4.53;;;33.80;99.90;;;;;;5079159;29;20272;-72
2023/08/18 10:58:54;;;;;;;5.60;5.00;;;33.20;99.90;;;;;;5101744;29;20225;-72
2023/08/18 11:01:27;;;;;;;5.68;4.63;;;33.20;99.90;;;;;;5096643;29;20046;-74
2023/08/18 11:03:58;;;;;;;6.63;5.00;;;33.10;99.90;;;;;;5086282;28;20031;-72
2023/08/18 11:06:30;;;;;;;6.55;5.15;;;33.20;99.90;;;;;;5092877;28;20051;-73
2023/08/18 11:09:08;;;;;;;6.53;5.72;;;33.20;99.90;;;;;;5104012;29;20351;-73
2023/08/18 11:11:40;;;;;;;6.55;5.90;;;32.50;99.90;;;;;;5103651;28;20043;-72
2023/08/18 11:14:14;;;;;;;6.78;5.55;;;30.80;99.90;;;;;;5088096;29;20074;-72
2023/08/18 11:16:48;;;;;;;8.25;5.20;;;31.00;99.90;;;;;;5108125;28;20058;-72
2023/08/18 11:19:19;;;;;;;7.25;5.70;;;31.40;99.90;;;;;;5109059;28;20039;-74
2023/08/18 11:21:54;;;;;;;8.68;6.03;;;31.20;1.00;;;;;;5114181;28;20270;-72
2023/08/18 11:24:31;;;;;;;9.30;5.53;;;30.80;1.00;;;;;;5101331;28;20037;-72
2023/08/18 11:27:05;;;;;;;7.35;5.57;;;30.10;1.00;;;;;;5148923;28;20039;-73
2023/08/18 11:29:39;;;;;;;6.68;5.43;;;30.30;1.00;;;;;;5102742;29;20048;-73
2023/08/18 11:32:12;;;;;;;7.20;5.60;;;29.90;1.00;;;;;;5080607;29;20058;-70
2023/08/18 11:34:49;;;;;;;7.55;5.82;;;29.80;1.00;;;;;;5090413;28;20045;-71
2023/08/18 11:37:29;;;;;;;6.47;5.10;;;29.40;1.00;;;;;;5204213;28;20042;-74
2023/08/18 11:40:05;;;;;;;7.57;5.28;;;29.50;1.00;;;;;;5180260;28;20037;-72
2023/08/18 11:42:49;;;;;;;8.02;5.18;;;30.40;1.00;;;;;;5098175;28;20035;-72
2023/08/18 11:45:25;;;;;;;8.85;5.72;;;30.20;1.00;;;;;;5190200;28;20051;-72
2023/08/18 11:48:07;;;;;;;8.38;5.30;;;30.60;1.00;;;;;;5085973;29;20035;-73
2023/08/18 11:50:42;;;;;;;5.80;4.80;;;31.20;1.00;;;;;;5108392;28;20428;-73
2023/08/18 11:53:29;;;;;;;4.68;4.20;;;33.10;31.10;;;;;;5102447;29;20047;-74
2023/08/18 11:56:02;;;;;;;6.28;5.43;;;34.40;1.00;;;;;;5117712;29;20045;-73
2023/08/18 11:58:36;;;;;;;5.88;5.20;;;33.90;1.00;;;;;;5134111;28;20048;-72
2023/08/18 12:01:09;;;;;;;7.45;5.35;;;33.30;1.00;;;;;;5166117;28;20050;-73
2023/08/18 12:03:40;;;;;;;8.32;5.80;;;35.00;39.40;;;;;;5096980;28;20619;-71
2023/08/18 12:06:24;;;;;;;7.82;5.13;;;36.20;28.30;;;;;;5113385;29;20373;-71
2023/08/18 12:08:56;;;;;;;5.22;4.72;;;36.80;94.50;;;;;;5120427;28;20034;-75
2023/08/18 12:11:30;;;;;;;6.15;5.38;;;37.90;99.90;;;;;;5169248;28;20040;-72
2023/08/18 12:14:03;;;;;;;7.88;5.68;;;40.00;99.90;;;;;;5139266;28;20082;-75
2023/08/18 12:16:35;;;;;;;5.65;4.95;;;41.30;99.90;;;;;;5102777;28;20051;-72
2023/08/18 12:19:07;;;;;;;5.13;4.63;;;40.50;99.90;;;;;;5101601;29;20047;-71
2023/08/18 12:21:39;;;;;;;5.97;5.33;;;39.20;99.90;;;;;;5108878;28;20043;-73
2023/08/18 12:24:11;;;;;;;6.10;5.50;;;38.10;99.90;;;;;;5204799;28;20046;-75
2023/08/18 12:26:48;;;;;;;5.75;5.15;;;37.30;99.90;;;;;;5193993;28;20035;-72
2023/08/18 12:29:25;;;;;;;5.60;5.10;;;36.80;99.90;;;;;;5167840;28;20089;-72
2023/08/18 12:31:56;;;;;;;7.00;5.28;;;37.40;99.90;;;;;;5150196;28;20047;-73
2023/08/18 12:34:28;;;;;;;5.95;5.22;;;35.30;16.70;;;;;;5100239;29;20051;-73
2023/08/18 12:37:03;;;;;;;6.85;4.90;;;35.00;60.30;;;;;;5097598;29;20042;-72
2023/08/18 12:39:34;;;;;;;5.65;5.13;;;33.50;28.20;;;;;;5104896;28;20051;-73
2023/08/18 12:42:08;;;;;;;6.18;5.43;;;33.70;1.00;;;;;;5103526;28;20047;-75
2023/08/18 12:44:43;;;;;;;5.80;5.25;;;33.60;1.00;;;;;;5088517;28;20053;-74
2023/08/18 12:47:17;;;;;;;5.07;4.57;;;33.40;6.90;;;;;;5075761;28;20036;-74
2023/08/18 12:49:49;;;;;;;5.25;4.65;;;33.10;62.00;;;;;;5078816;28;20058;-72
2023/08/18 12:52:21;;;;;;;4.78;4.38;;;33.80;33.30;;;;;;5166918;28;20047;-73
2023/08/18 12:54:55;;;;;;;8.93;5.97;;;34.60;10.40;;;;;;5066763;29;20044;-73
2023/08/18 12:57:29;;;;;;;7.60;4.80;;;34.80;1.00;;;;;;5076095;28;20070;-72
2023/08/18 13:00:00;;;;;;;7.38;4.75;;;34.80;3.60;;;;;;5068675;28;20048;-72
2023/08/18 13:02:32;;;;;;;6.57;4.95;;;33.90;1.00;;;;;;5100262;28;20044;-72
2023/08/18 13:05:04;;;;;;;5.43;4.93;;;33.80;99.90;;;;;;5065594;29;20051;-73
2023/08/18 13:07:39;;;;;;;5.63;4.50;;;35.90;99.90;;;;;;5068136;29;20225;-71
2023/08/18 13:10:11;;;;;;;7.30;4.80;;;37.50;99.90;;;;;;5101423;28;20043;-71
2023/08/18 13:12:42;;;;;;;5.07;4.57;;;39.00;99.90;;;;;;5084501;29;20057;-73
2023/08/18 13:15:14;;;;;;;5.75;4.47;;;39.90;99.90;;;;;;5112897;28;20042;-73
2023/08/18 13:17:47;;;;;;;4.70;4.30;;;40.60;99.90;;;;;;5174659;28;20051;-72
2023/08/18 13:20:24;;;;;;;6.53;4.40;;;40.00;99.90;;;;;;5073308;28;20059;-73
2023/08/18 13:23:03;;;;;;;5.10;4.53;;;39.40;99.90;;;;;;5128588;28;20049;-72
2023/08/18 13:25:39;;;;;;;5.80;4.93;;;38.90;99.90;;;;;;5127703;28;20053;-72